Aviation Digital Data Service (ADDS)

Output produced by METARs form (0113 UTC 19 November 2017)
found at http://aviationweather.gov/adds/metars/
 
KLBX 182322Z 1900/1924 35017G27KT P6SM SCT250 
     FM190600 36015KT P6SM SCT250 
     FM190900 36011KT P6SM SCT250 
     FM191400 01012G22KT P6SM SCT250 
     FM192000 02010KT P6SM SCT250